createdAt,value
2019-01-26T00:01:46.110Z,22.81
2019-01-26T00:04:16.638Z,22.78
2019-01-26T00:06:47.392Z,22.76
2019-01-26T00:09:17.920Z,22.79
2019-01-26T00:11:48.409Z,22.79
2019-01-26T00:14:18.948Z,22.77
2019-01-26T00:16:49.467Z,22.75
2019-01-26T00:19:20.170Z,22.74
2019-01-26T00:21:50.793Z,22.74
2019-01-26T00:24:21.285Z,22.72
2019-01-26T00:26:51.867Z,22.71
2019-01-26T00:29:22.357Z,22.70
2019-01-26T00:31:52.806Z,22.67
2019-01-26T00:34:23.685Z,22.67
2019-01-26T00:36:54.195Z,22.68
2019-01-26T00:39:24.763Z,22.69
2019-01-26T00:41:55.327Z,22.69
2019-01-26T00:44:25.916Z,22.66
2019-01-26T00:46:57.103Z,22.65
2019-01-26T00:49:27.981Z,22.66
2019-01-26T00:51:58.556Z,22.67
2019-01-26T00:54:29.179Z,22.65
2019-01-26T00:56:59.778Z,22.65
2019-01-26T00:59:30.556Z,22.65
2019-01-26T01:02:01.230Z,22.65
2019-01-26T01:04:31.951Z,22.63
2019-01-26T01:07:02.482Z,22.61
2019-01-26T01:09:33.034Z,22.60
2019-01-26T01:12:03.641Z,22.61
2019-01-26T01:14:35.089Z,22.59
2019-01-26T01:17:05.804Z,22.59
2019-01-26T01:19:36.428Z,22.58
2019-01-26T01:22:06.981Z,22.57
2019-01-26T01:24:37.805Z,22.55
2019-01-26T01:27:08.396Z,22.55
2019-01-26T01:29:39.339Z,22.57
2019-01-26T01:32:09.855Z,22.57
2019-01-26T01:34:40.446Z,22.55
2019-01-26T01:37:11.188Z,22.54
2019-01-26T01:39:41.722Z,22.51
2019-01-26T01:42:12.609Z,22.51
2019-01-26T01:44:43.162Z,22.51
2019-01-26T01:47:13.917Z,22.50
2019-01-26T01:49:44.622Z,22.49
2019-01-26T01:52:15.273Z,22.49
2019-01-26T01:54:45.806Z,22.51
2019-01-26T01:57:16.566Z,22.50
2019-01-26T01:59:47.319Z,22.52
2019-01-26T02:02:17.890Z,22.49
2019-01-26T02:04:48.352Z,22.50
2019-01-26T02:07:19.002Z,22.48
2019-01-26T02:09:49.642Z,22.49
2019-01-26T02:12:20.256Z,22.49
2019-01-26T02:14:50.863Z,22.49
2019-01-26T02:17:21.317Z,22.49
2019-01-26T02:19:52.219Z,22.50
2019-01-26T02:22:22.825Z,22.49
2019-01-26T02:24:53.391Z,22.48
2019-01-26T02:27:25.048Z,22.47
2019-01-26T02:29:55.962Z,22.47
2019-01-26T02:32:27.596Z,22.46
2019-01-26T02:34:58.174Z,22.46
2019-01-26T02:37:28.695Z,22.47
2019-01-26T02:39:59.334Z,22.45
2019-01-26T02:42:29.896Z,22.46
2019-01-26T02:45:00.523Z,22.44
2019-01-26T02:47:31.234Z,22.43
2019-01-26T02:50:02.119Z,22.42
2019-01-26T02:52:32.587Z,22.43
2019-01-26T02:55:03.122Z,22.43
2019-01-26T02:57:33.960Z,22.43
2019-01-26T03:00:05.890Z,22.41
2019-01-26T03:02:36.578Z,22.41
2019-01-26T03:05:07.484Z,22.41
2019-01-26T03:07:38.076Z,22.41
2019-01-26T03:10:10.007Z,22.39
2019-01-26T03:12:40.511Z,22.40
2019-01-26T03:15:12.874Z,22.39
2019-01-26T03:17:43.382Z,22.41
2019-01-26T03:20:15.309Z,22.38
2019-01-26T03:22:45.977Z,22.39
2019-01-26T03:25:16.921Z,22.39
2019-01-26T03:27:47.879Z,22.40
2019-01-26T03:30:20.663Z,22.38
2019-01-26T03:32:51.416Z,22.38
2019-01-26T03:35:22.322Z,22.37
2019-01-26T03:37:52.891Z,22.36
2019-01-26T03:40:24.633Z,22.35
2019-01-26T03:42:55.297Z,22.34
2019-01-26T03:45:25.754Z,22.36
2019-01-26T03:47:56.242Z,22.35
2019-01-26T03:50:26.707Z,22.34
2019-01-26T03:52:57.209Z,22.33
2019-01-26T03:55:27.867Z,22.35
2019-01-26T03:57:58.400Z,22.35
2019-01-26T04:00:28.981Z,22.34
2019-01-26T04:02:59.548Z,22.33
2019-01-26T04:05:30.061Z,22.33
2019-01-26T04:08:00.720Z,22.32
2019-01-26T04:10:31.340Z,22.33
2019-01-26T04:13:01.819Z,22.32
2019-01-26T04:15:32.462Z,22.31
2019-01-26T04:18:03.293Z,22.32
2019-01-26T04:20:34.804Z,22.31
2019-01-26T04:23:05.556Z,22.34
2019-01-26T04:25:36.209Z,22.33
2019-01-26T04:28:06.772Z,22.31
2019-01-26T04:30:37.226Z,22.31
2019-01-26T04:33:08.874Z,22.30
2019-01-26T04:35:39.805Z,22.31
2019-01-26T04:38:10.399Z,22.29
2019-01-26T04:40:41.137Z,22.28
2019-01-26T04:43:11.782Z,22.28
2019-01-26T04:45:42.315Z,22.27
2019-01-26T04:48:12.877Z,22.29
2019-01-26T04:50:44.051Z,22.28
2019-01-26T04:53:14.618Z,22.29
2019-01-26T04:55:45.263Z,22.27
2019-01-26T04:58:15.876Z,22.28
2019-01-26T05:00:46.319Z,22.27
2019-01-26T05:03:20.041Z,22.27
2019-01-26T05:05:50.570Z,22.27
2019-01-26T05:08:21.166Z,22.26
2019-01-26T05:10:52.030Z,22.27
2019-01-26T05:13:22.673Z,22.25
2019-01-26T05:15:53.276Z,22.26
2019-01-26T05:18:23.818Z,22.23
2019-01-26T05:20:54.303Z,22.22
2019-01-26T05:23:24.967Z,22.22
2019-01-26T05:25:55.922Z,22.23
2019-01-26T05:28:26.617Z,22.22
2019-01-26T05:30:57.172Z,22.22
2019-01-26T05:33:27.860Z,22.22
2019-01-26T05:35:58.366Z,22.22
2019-01-26T05:38:28.967Z,22.21
2019-01-26T05:40:59.467Z,22.21
2019-01-26T05:43:30.045Z,22.19
2019-01-26T05:46:00.792Z,22.19
2019-01-26T05:48:31.316Z,22.20
2019-01-26T05:51:02.103Z,22.19
2019-01-26T05:53:32.522Z,22.18
2019-01-26T05:56:03.031Z,22.19
2019-01-26T05:58:33.716Z,22.19
2019-01-26T06:01:04.452Z,22.18
2019-01-26T06:03:35.434Z,22.18
2019-01-26T06:06:06.398Z,22.19
2019-01-26T06:08:37.041Z,22.20
2019-01-26T06:11:07.562Z,22.18
2019-01-26T06:13:38.037Z,22.15
2019-01-26T06:16:11.148Z,22.12
2019-01-26T06:18:44.187Z,22.13
2019-01-26T06:21:14.865Z,22.12
2019-01-26T06:23:46.835Z,22.11
2019-01-26T06:26:17.574Z,22.13
2019-01-26T06:28:48.183Z,22.13
2019-01-26T06:31:18.938Z,22.16
2019-01-26T06:33:49.557Z,22.15
2019-01-26T06:36:20.174Z,22.17
2019-01-26T06:38:50.831Z,22.18
2019-01-26T06:41:21.548Z,22.23
2019-01-26T06:43:52.136Z,22.22
2019-01-26T06:46:23.025Z,22.22
2019-01-26T06:48:57.354Z,22.25
2019-01-26T06:51:28.191Z,22.27
2019-01-26T06:54:00.240Z,22.29
2019-01-26T06:56:31.202Z,22.29
2019-01-26T06:59:02.559Z,22.32
2019-01-26T07:01:33.149Z,22.34
2019-01-26T07:04:04.019Z,22.34
2019-01-26T07:06:45.779Z,22.34
2019-01-26T07:09:16.349Z,22.35
2019-01-26T07:11:47.351Z,22.37
2019-01-26T07:14:17.988Z,22.42
2019-01-26T07:16:49.011Z,22.42
2019-01-26T07:19:19.595Z,22.45
2019-01-26T07:21:50.277Z,22.45
2019-01-26T07:24:20.881Z,22.42
2019-01-26T07:26:51.483Z,22.45
2019-01-26T07:29:22.326Z,22.43
2019-01-26T07:31:53.112Z,22.47
2019-01-26T07:34:23.844Z,22.46
2019-01-26T07:36:54.798Z,22.46
2019-01-26T07:39:25.343Z,22.47
2019-01-26T07:41:57.274Z,22.46
2019-01-26T07:44:27.756Z,22.48
2019-01-26T07:46:58.471Z,22.50
2019-01-26T07:49:29.136Z,22.52
2019-01-26T07:52:00.038Z,22.48
2019-01-26T07:54:30.840Z,22.47
2019-01-26T07:57:01.913Z,22.49
2019-01-26T07:59:32.715Z,22.55
2019-01-26T08:02:03.131Z,22.48
2019-01-26T08:04:33.649Z,22.49
2019-01-26T08:07:04.578Z,22.48
2019-01-26T08:09:35.243Z,22.46
2019-01-26T08:12:06.058Z,22.52
2019-01-26T08:14:36.824Z,22.55
2019-01-26T08:17:07.379Z,22.55
2019-01-26T08:19:38.253Z,22.55
2019-01-26T08:22:08.709Z,22.56
2019-01-26T08:24:39.737Z,22.59
2019-01-26T08:27:10.524Z,22.54
2019-01-26T08:29:41.381Z,22.45
2019-01-26T08:32:12.085Z,22.45
2019-01-26T08:34:42.862Z,22.50
2019-01-26T08:37:13.640Z,22.51
2019-01-26T08:39:44.276Z,22.54
2019-01-26T08:42:14.938Z,22.59
2019-01-26T08:44:45.465Z,22.57
2019-01-26T08:47:20.377Z,22.62
2019-01-26T08:49:50.957Z,22.63
2019-01-26T08:52:21.542Z,22.63
2019-01-26T08:54:52.008Z,22.61
2019-01-26T08:57:22.560Z,22.64
2019-01-26T08:59:53.043Z,22.64
2019-01-26T09:02:31.718Z,22.63
2019-01-26T09:05:02.446Z,22.64
2019-01-26T09:07:32.897Z,22.63
2019-01-26T09:10:03.542Z,22.63
2019-01-26T09:12:34.065Z,22.63
2019-01-26T09:15:04.739Z,22.65
2019-01-26T09:17:35.360Z,22.63
2019-01-26T09:20:07.578Z,22.64
2019-01-26T09:22:38.334Z,22.64
2019-01-26T09:25:09.215Z,22.66
2019-01-26T09:27:40.144Z,22.66
2019-01-26T09:30:10.795Z,22.65
2019-01-26T09:32:42.135Z,22.65
2019-01-26T09:35:13.662Z,22.66
2019-01-26T09:37:44.252Z,22.65
2019-01-26T09:40:14.854Z,22.64
2019-01-26T09:42:45.399Z,22.66
2019-01-26T09:45:16.499Z,22.66
2019-01-26T09:47:47.297Z,22.66
2019-01-26T09:50:17.723Z,22.66
2019-01-26T09:52:48.487Z,22.65
2019-01-26T09:55:19.170Z,22.67
2019-01-26T09:57:49.648Z,22.66
2019-01-26T10:00:23.107Z,22.67
2019-01-26T10:02:53.730Z,22.65
2019-01-26T10:05:24.796Z,22.68
2019-01-26T10:07:55.491Z,22.66
2019-01-26T10:10:26.194Z,22.67
2019-01-26T10:12:56.764Z,22.67
2019-01-26T10:15:28.496Z,22.67
2019-01-26T10:17:59.095Z,22.67
2019-01-26T10:20:31.457Z,22.66
2019-01-26T10:23:02.493Z,22.66
2019-01-26T10:25:33.082Z,22.67
2019-01-26T10:28:03.638Z,22.67
2019-01-26T10:30:42.642Z,22.66
2019-01-26T10:33:14.622Z,22.66
2019-01-26T10:36:16.413Z,22.66
2019-01-26T10:39:01.180Z,22.65
2019-01-26T10:41:50.699Z,22.64
2019-01-26T10:44:25.016Z,22.64
2019-01-26T10:46:55.649Z,22.65
2019-01-26T10:49:28.441Z,22.65
2019-01-26T10:52:01.815Z,22.65
2019-01-26T10:54:34.048Z,22.65
2019-01-26T10:57:05.006Z,22.64
2019-01-26T10:59:35.785Z,22.66
2019-01-26T11:02:06.928Z,22.64
2019-01-26T11:04:37.625Z,22.65
2019-01-26T11:07:08.247Z,22.66
2019-01-26T11:09:38.897Z,22.64
2019-01-26T11:12:09.910Z,22.63
2019-01-26T11:14:40.810Z,22.65
2019-01-26T11:17:11.346Z,22.64
2019-01-26T11:19:42.430Z,22.63
2019-01-26T11:22:13.055Z,22.64
2019-01-26T11:24:43.570Z,22.64
2019-01-26T11:27:14.510Z,22.61
2019-01-26T11:29:44.957Z,22.62
2019-01-26T11:32:16.017Z,22.63
2019-01-26T11:34:46.779Z,22.62
2019-01-26T11:37:17.598Z,22.60
2019-01-26T11:39:54.858Z,22.60
2019-01-26T11:42:25.508Z,22.58
2019-01-26T11:45:23.872Z,22.58
2019-01-26T11:47:55.000Z,22.58
2019-01-26T11:50:31.112Z,22.58
2019-01-26T11:53:01.620Z,22.56
2019-01-26T11:55:38.562Z,22.57
2019-01-26T11:58:09.229Z,22.56
2019-01-26T12:00:59.564Z,22.58
2019-01-26T12:03:38.860Z,22.56
2019-01-26T12:06:13.214Z,22.57
2019-01-26T12:08:43.780Z,22.55
2019-01-26T12:11:14.253Z,22.56
2019-01-26T12:13:45.053Z,22.56
2019-01-26T12:16:15.639Z,22.57
2019-01-26T12:19:05.367Z,22.51
2019-01-26T12:21:36.115Z,22.51
2019-01-26T12:24:06.608Z,22.49
2019-01-26T12:26:37.243Z,22.53
2019-01-26T12:29:08.131Z,22.50
2019-01-26T12:31:38.838Z,22.50
2019-01-26T12:34:09.555Z,22.50
2019-01-26T12:36:40.769Z,22.52
2019-01-26T12:39:12.423Z,22.52
2019-01-26T12:41:43.088Z,22.53
2019-01-26T12:44:13.957Z,22.51
2019-01-26T12:46:44.922Z,22.51
2019-01-26T12:49:15.608Z,22.52
2019-01-26T12:51:46.152Z,22.52
2019-01-26T12:54:16.627Z,22.51
2019-01-26T12:56:47.254Z,22.49
2019-01-26T12:59:17.926Z,22.50
2019-01-26T13:01:48.543Z,22.49
2019-01-26T13:04:18.990Z,22.50
2019-01-26T13:06:49.552Z,22.50
2019-01-26T13:09:20.460Z,22.49
2019-01-26T13:11:51.033Z,22.47
2019-01-26T13:14:21.530Z,22.48
2019-01-26T13:16:52.376Z,22.49
2019-01-26T13:19:23.860Z,22.49
2019-01-26T13:21:54.624Z,22.48
2019-01-26T13:24:25.239Z,22.48
2019-01-26T13:26:55.995Z,22.47
2019-01-26T13:29:26.783Z,22.50
2019-01-26T13:31:57.832Z,22.50
2019-01-26T13:34:28.423Z,22.50
2019-01-26T13:36:59.089Z,22.52
2019-01-26T13:39:29.879Z,22.48
2019-01-26T13:42:00.551Z,22.49
2019-01-26T13:44:31.415Z,22.49
2019-01-26T13:47:02.961Z,22.48
2019-01-26T13:49:33.633Z,22.47
2019-01-26T13:52:04.435Z,22.48
2019-01-26T13:54:35.412Z,22.48
2019-01-26T13:57:06.106Z,22.48
2019-01-26T13:59:36.701Z,22.46
2019-01-26T14:02:07.358Z,22.48
2019-01-26T14:04:40.175Z,22.44
2019-01-26T14:07:10.978Z,22.45
2019-01-26T14:09:41.616Z,22.46
2019-01-26T14:12:12.187Z,22.47
2019-01-26T14:14:43.074Z,22.45
2019-01-26T14:17:13.981Z,22.45
2019-01-26T14:19:51.028Z,22.44
2019-01-26T14:22:17.350Z,22.44
2019-01-26T14:24:48.397Z,22.44
2019-01-26T14:27:19.131Z,22.44
2019-01-26T14:29:51.087Z,22.44
2019-01-26T14:32:21.760Z,22.44
2019-01-26T14:34:52.602Z,22.44
2019-01-26T14:37:23.154Z,22.42
2019-01-26T14:39:53.772Z,22.41
2019-01-26T14:42:24.249Z,22.41
2019-01-26T14:44:54.886Z,22.40
2019-01-26T14:47:25.397Z,22.40
2019-01-26T14:49:58.540Z,22.41
2019-01-26T14:52:29.112Z,22.41
2019-01-26T14:54:59.705Z,22.41
2019-01-26T14:57:30.478Z,22.41
2019-01-26T15:00:00.981Z,22.40
2019-01-26T15:02:37.335Z,22.39
2019-01-26T15:05:08.056Z,22.39
2019-01-26T15:07:38.930Z,22.40
2019-01-26T15:10:10.410Z,22.40
2019-01-26T15:12:41.317Z,22.40
2019-01-26T15:15:12.283Z,22.39
2019-01-26T15:17:42.825Z,22.38
2019-01-26T15:20:16.674Z,22.37
2019-01-26T15:23:04.628Z,22.37
2019-01-26T15:25:35.755Z,22.36
2019-01-26T15:28:08.130Z,22.34
2019-01-26T15:30:41.428Z,22.34
2019-01-26T15:33:12.359Z,22.34
2019-01-26T15:35:43.261Z,22.34
2019-01-26T15:38:14.345Z,22.34
2019-01-26T15:40:45.105Z,22.34
2019-01-26T15:43:16.146Z,22.34
2019-01-26T15:45:48.887Z,22.34
2019-01-26T15:48:19.595Z,22.31
2019-01-26T15:50:50.195Z,22.32
2019-01-26T15:53:21.023Z,22.32
2019-01-26T15:55:51.678Z,22.30
2019-01-26T15:58:22.688Z,22.30
2019-01-26T16:00:53.393Z,22.29
2019-01-26T16:03:23.942Z,22.30
2019-01-26T16:05:54.449Z,22.30
2019-01-26T16:08:25.705Z,22.30
2019-01-26T16:10:56.404Z,22.28
2019-01-26T16:13:28.214Z,22.27
2019-01-26T16:15:59.205Z,22.29
2019-01-26T16:18:30.417Z,22.29
2019-01-26T16:21:01.342Z,22.29
2019-01-26T16:23:32.545Z,22.28
2019-01-26T16:26:03.201Z,22.27
2019-01-26T16:28:33.964Z,22.26
2019-01-26T16:31:05.007Z,22.25
2019-01-26T16:33:36.007Z,22.22
2019-01-26T16:36:15.930Z,22.23
2019-01-26T16:38:49.449Z,22.26
2019-01-26T16:41:20.331Z,22.26
2019-01-26T16:43:51.438Z,22.23
2019-01-26T16:46:23.000Z,22.23
2019-01-26T16:48:53.988Z,22.24
2019-01-26T16:51:25.647Z,22.22
2019-01-26T16:53:56.516Z,22.24
2019-01-26T16:56:27.830Z,22.26
2019-01-26T16:58:59.225Z,22.26
2019-01-26T17:01:31.345Z,22.26
2019-01-26T17:04:02.107Z,22.27
2019-01-26T17:06:32.971Z,22.25
2019-01-26T17:09:04.942Z,22.23
2019-01-26T17:11:36.052Z,22.23
2019-01-26T17:14:06.920Z,22.22
2019-01-26T17:16:37.440Z,22.22
2019-01-26T17:19:08.326Z,22.23
2019-01-26T17:21:40.067Z,22.23
2019-01-26T17:24:11.046Z,22.34
2019-01-26T17:26:41.722Z,22.29
2019-01-26T17:29:12.496Z,22.24
2019-01-26T17:31:43.556Z,22.23
2019-01-26T17:34:14.190Z,22.21
2019-01-26T17:36:46.030Z,22.21
2019-01-26T17:39:16.479Z,22.20
2019-01-26T17:41:47.260Z,22.20
2019-01-26T17:44:18.028Z,22.20
2019-01-26T17:46:48.409Z,22.20
2019-01-26T17:49:18.883Z,22.21
2019-01-26T17:51:49.271Z,22.19
2019-01-26T17:54:19.548Z,22.28
2019-01-26T17:56:49.874Z,22.27
2019-01-26T17:59:20.426Z,22.23
2019-01-26T18:01:50.783Z,22.22
2019-01-26T18:04:21.357Z,22.24
2019-01-26T18:06:52.466Z,22.23
2019-01-26T18:09:23.268Z,22.25
2019-01-26T18:11:54.054Z,22.27
2019-01-26T18:14:24.847Z,22.25
2019-01-26T18:16:55.398Z,22.23
2019-01-26T18:19:26.177Z,22.24
2019-01-26T18:21:57.499Z,22.26
2019-01-26T18:24:28.645Z,22.27
2019-01-26T18:26:59.392Z,22.29
2019-01-26T18:29:30.804Z,22.29
2019-01-26T18:32:01.677Z,22.31
2019-01-26T18:34:35.061Z,22.34
2019-01-26T18:37:06.966Z,22.36
2019-01-26T18:39:37.355Z,22.35
2019-01-26T18:42:07.779Z,22.36
2019-01-26T18:44:38.158Z,22.35
2019-01-26T18:47:09.720Z,22.37
2019-01-26T18:49:40.061Z,22.37
2019-01-26T18:52:10.425Z,22.39
2019-01-26T18:54:40.814Z,22.41
2019-01-26T18:57:11.099Z,22.42
2019-01-26T18:59:42.108Z,22.42
2019-01-26T19:02:13.126Z,22.45
2019-01-26T19:04:57.242Z,22.44
2019-01-26T19:07:27.752Z,22.45
2019-01-26T19:09:58.251Z,22.47
2019-01-26T19:12:29.017Z,22.49
2019-01-26T19:15:04.720Z,22.52
2019-01-26T19:17:36.977Z,22.55
2019-01-26T19:20:07.687Z,22.56
2019-01-26T19:22:38.991Z,22.57
2019-01-26T19:25:11.695Z,22.55
2019-01-26T19:27:42.742Z,22.56
2019-01-26T19:30:15.765Z,22.55
2019-01-26T19:32:47.573Z,22.55
2019-01-26T19:35:18.215Z,22.55
2019-01-26T19:37:49.634Z,22.56
2019-01-26T19:40:21.366Z,22.58
2019-01-26T19:42:52.563Z,22.62
2019-01-26T19:45:23.697Z,22.63
2019-01-26T19:47:54.277Z,22.61
2019-01-26T19:50:25.401Z,22.61
2019-01-26T19:52:56.325Z,22.62
2019-01-26T19:55:27.120Z,22.61
2019-01-26T19:57:58.719Z,22.61
2019-01-26T20:00:29.372Z,22.61
2019-01-26T20:03:00.044Z,22.61
2019-01-26T20:05:30.755Z,22.63
2019-01-26T20:08:03.687Z,22.64
2019-01-26T20:11:06.716Z,22.64
2019-01-26T20:13:53.604Z,22.62
2019-01-26T20:16:25.047Z,22.61
2019-01-26T20:18:56.271Z,22.61
2019-01-26T20:21:27.003Z,22.62
2019-01-26T20:23:57.598Z,22.62
2019-01-26T20:26:28.087Z,22.65
2019-01-26T20:28:58.705Z,22.66
2019-01-26T20:31:29.222Z,22.67
2019-01-26T20:33:59.924Z,22.68
2019-01-26T20:36:30.722Z,22.67
2019-01-26T20:39:01.369Z,22.67
2019-01-26T20:41:37.429Z,22.69
2019-01-26T20:44:07.873Z,22.68
2019-01-26T20:46:38.342Z,22.67
2019-01-26T20:49:10.565Z,22.67
2019-01-26T20:51:41.089Z,22.69
2019-01-26T20:54:11.985Z,22.69
2019-01-26T20:56:43.728Z,22.69
2019-01-26T20:59:14.493Z,22.70
2019-01-26T21:01:45.787Z,22.70
2019-01-26T21:04:17.583Z,22.69
2019-01-26T21:06:48.261Z,22.66
2019-01-26T21:09:18.849Z,22.75
2019-01-26T21:11:49.490Z,22.73
2019-01-26T21:14:20.198Z,22.68
2019-01-26T21:16:50.929Z,22.66
2019-01-26T21:19:21.452Z,22.66
2019-01-26T21:21:52.107Z,22.68
2019-01-26T21:24:23.018Z,22.67
2019-01-26T21:26:53.997Z,22.67
2019-01-26T21:29:24.492Z,22.69
2019-01-26T21:31:55.349Z,22.71
2019-01-26T21:34:25.766Z,22.72
2019-01-26T21:36:56.207Z,22.71
2019-01-26T21:39:26.742Z,22.71
2019-01-26T21:41:58.154Z,22.74
2019-01-26T21:44:29.151Z,22.74
2019-01-26T21:46:59.661Z,22.74
2019-01-26T21:49:30.445Z,22.75
2019-01-26T21:52:00.978Z,22.76
2019-01-26T21:54:38.344Z,22.76
2019-01-26T21:57:08.830Z,22.74
2019-01-26T21:59:39.365Z,22.75
2019-01-26T22:02:09.965Z,22.76
2019-01-26T22:04:40.562Z,22.76
2019-01-26T22:07:12.847Z,22.76
2019-01-26T22:09:43.522Z,22.77
2019-01-26T22:12:17.289Z,22.77
2019-01-26T22:14:47.822Z,22.77
2019-01-26T22:17:22.348Z,22.75
2019-01-26T22:19:52.881Z,22.75
2019-01-26T22:22:26.550Z,22.75
2019-01-26T22:24:57.595Z,22.75
2019-01-26T22:27:28.757Z,22.73
2019-01-26T22:29:59.399Z,22.74
2019-01-26T22:32:29.788Z,22.73
2019-01-26T22:35:00.330Z,22.74
2019-01-26T22:37:30.958Z,22.73
2019-01-26T22:40:01.586Z,22.72
2019-01-26T22:42:33.193Z,22.72
2019-01-26T22:45:04.222Z,22.73
2019-01-26T22:47:34.624Z,22.73
2019-01-26T22:50:06.156Z,22.71
2019-01-26T22:52:36.654Z,22.71
2019-01-26T22:55:10.390Z,22.69
2019-01-26T22:57:41.261Z,22.69
2019-01-26T23:00:26.208Z,22.69
2019-01-26T23:02:58.183Z,22.69
2019-01-26T23:05:49.651Z,22.68
2019-01-26T23:08:25.261Z,22.67
2019-01-26T23:11:44.843Z,22.66
2019-01-26T23:15:08.381Z,22.64
2019-01-26T23:18:04.483Z,22.63
2019-01-26T23:20:59.982Z,22.62
2019-01-26T23:24:21.714Z,22.61
2019-01-26T23:27:28.379Z,22.60
2019-01-26T23:30:36.860Z,22.58
2019-01-26T23:33:07.676Z,22.56
2019-01-26T23:35:38.285Z,22.58
2019-01-26T23:38:08.881Z,22.56
2019-01-26T23:40:39.945Z,22.56
2019-01-26T23:43:13.083Z,22.56
2019-01-26T23:45:43.725Z,22.55
2019-01-26T23:48:14.169Z,22.53
2019-01-26T23:50:44.517Z,22.54
2019-01-26T23:53:15.171Z,22.56
2019-01-26T23:55:45.836Z,22.57
2019-01-26T23:58:18.683Z,22.55
